Aérodrome :
LOGIN :

S'inscrire | Disclaimer

   EN    FR    IT 

 










Légende :    VFR   VFR Marginal   IFR   IFR Intensif   IFR Très Intensif
Visi : 
Plafond : 
>= 8 km
>= 3000ft
5 à 8 km
1000 à 3000 ft
1500m à 5 km
500 à 1000 ft
800 à 1500m
200 à 500 ft
< 800m
< 200 ft
Symboles :   Orages  Brouillard  Fortes neiges  Fortes précipitations  Vent > 20 kt
SIGMETs :   Divers  Orages  Givrage  Turbulence  Onde Orograph.  Cendres Volcan.






- Altitude de l'aérodrome : 124 ft
- Code IATA : RNS


LFRN - Rennes

DERNIER METAR :
  • 251830Z AUTO 25006KT 9999 FEW031 OVC046 17/12 Q1022 NOSIG

METARs EXPIRÉS :
  • 251800Z AUTO 24010KT 9999 SCT032 SCT044 OVC050 17/12 Q1022 NOSIG
  • 251730Z AUTO 24009KT 9999 SCT035 OVC049 17/12 Q1021 NOSIG
  • 251700Z AUTO 25009KT 220V280 9999 FEW029 OVC047 18/12 Q1021 TEMPO RA BKN012
  • 251630Z AUTO 24010KT 9999 SCT030 BKN038 BKN045 18/12 Q1021 TEMPO RA BKN012
  • 251600Z AUTO 25010KT 210V270 9999 FEW032 BKN041 OVC052 18/12 Q1021 TEMPO RA BKN012

TAF TAF LFRN
Valide du 25 à 18h jusqu'au 26 à 18h UTC


251700Z 2518/2618 25010KT 9999 BKN030
PROB30
TEMPO 2521/2604 5000 RA BKN012
BECMG 2522/2524 VRB05KT
TEMPO 2604/2608 BKN012
ATIS : +33 2 99 67 72 50



MET'MAP, la Météo Aéronautique d'un coup d'oeil ! - Copyright ORBIFLY Décembre 2007 - Disclaimer

ORBIFLY MET'MAP TEAM :

Programmation & Développement : Alexandra Zaïnal
Sur une idée originale de : Baudouin d'Aumeries
Soutien technique & logistique : Manuel Goepfert
Assistance : Marc-Olivier Méhu

Contact : metmap@orbifly.com




SOURCES & CREDITS :

   NOAA